Saltar al contingut principal

Dades de l'estació automàtica Sant Martí de Riucorb

Selector estació i data
?
?

Resum diari

22:30 TU
Dades diàries de l'estació meteorològica
Temperatura mitjana 25.7 °C
Temperatura màxima 34.3 °C 14:42 TU
Temperatura mínima 19.5 °C 0:03 TU
Humitat relativa mitjana 63%
Precipitació acumulada 0.0 mm
Ratxa màxima del vent (2 m) 27.4 km/h - 147º 18:04 TU
Irradiació solar global 29.2 MJ/m2

El tram horari està expressat en Temps Universal (TU). Cal sumar una hora en horari d'hivern i dues en horari d'estiu per passar a l'hora oficial.

Sant Martí de Riucorb

Metadades estació meteorològica
Municipi Sant Martí de Riucorb
Comarca Urgell
Altitud 413 m
Data alta 05.02.2002
Estat actual Operativa
Dades de període
Període
TU
TM
°C
TX
°C
TN
°C
HRM
%
PPT
mm
VVM (2 m)
km/h
DVM (2 m)
graus
VVX (2 m)
km/h
RS
W/m2
00:00 - 00:30 19.7 19.8 19.5 83 0.0 6.1 150 16.6 0
00:30 - 01:00 19.8 19.9 19.8 82 0.0 6.5 159 16.9 0
01:00 - 01:30 19.9 19.9 19.9 82 0.0 6.8 156 17.3 0
01:30 - 02:00 19.9 19.9 19.9 83 0.0 6.8 152 15.5 0
02:00 - 02:30 19.9 19.9 19.8 83 0.0 6.8 154 16.2 0
02:30 - 03:00 19.9 19.9 19.8 83 0.0 6.5 163 18.0 0
03:00 - 03:30 19.8 19.8 19.6 84 0.0 5.4 164 13.3 0
03:30 - 04:00 19.7 19.7 19.6 85 0.0 5.8 166 15.5 0
04:00 - 04:30 19.7 19.7 19.6 86 0.0 6.5 160 13.3 0
04:30 - 05:00 19.7 19.8 19.6 86 0.0 5.8 156 14.0 13
05:00 - 05:30 20.0 20.3 19.8 85 0.0 6.1 150 16.9 49
05:30 - 06:00 20.8 21.0 20.3 82 0.0 5.0 148 13.3 105
06:00 - 06:30 21.6 22.1 21.0 79 0.0 5.4 148 12.6 196
06:30 - 07:00 22.6 23.2 22.1 75 0.0 5.4 154 10.8 312
07:00 - 07:30 23.9 24.7 23.4 69 0.0 3.2 152 8.3 376
07:30 - 08:00 24.0 24.3 23.8 67 0.0 2.2 252 6.1 358
08:00 - 08:30 24.9 25.7 24.2 64 0.0 3.2 307 8.3 577
08:30 - 09:00 25.8 26.9 24.9 61 0.0 3.2 86 11.2 612
09:00 - 09:30 26.8 27.3 26.3 57 0.0 3.6 305 11.5 749
09:30 - 10:00 27.4 28.8 26.7 56 0.0 4.0 337 9.4 814
10:00 - 10:30 28.6 29.1 28.0 52 0.0 4.7 276 14.4 870
10:30 - 11:00 29.4 30.3 28.4 49 0.0 4.7 355 12.2 913
11:00 - 11:30 30.7 31.4 30.2 42 0.0 6.5 332 23.4 946
11:30 - 12:00 31.4 32.5 30.9 33 0.0 8.3 308 19.4 959
12:00 - 12:30 32.1 32.8 31.4 33 0.0 7.6 297 18.7 963
12:30 - 13:00 32.5 33.2 31.9 34 0.0 7.6 307 19.8 950
13:00 - 13:30 32.8 33.4 32.1 33 0.0 7.2 292 18.7 929
13:30 - 14:00 33.6 34.1 33.3 29 0.0 9.4 281 19.1 872
14:00 - 14:30 33.7 34.2 33.1 30 0.0 5.4 282 20.5 838
14:30 - 15:00 33.8 34.3 33.3 33 0.0 6.1 221 16.9 766
15:00 - 15:30 32.7 33.0 32.4 41 0.0 8.3 148 19.4 698
15:30 - 16:00 32.6 33.1 31.8 43 0.0 8.6 169 21.2 616
16:00 - 16:30 31.7 32.4 31.0 47 0.0 9.7 151 25.9 525
16:30 - 17:00 30.6 31.2 30.2 51 0.0 10.4 153 20.9 429
17:00 - 17:30 30.1 30.5 29.7 53 0.0 9.4 162 18.7 332
17:30 - 18:00 28.8 29.5 27.8 58 0.0 10.1 158 24.1 237
18:00 - 18:30 27.2 27.7 26.6 64 0.0 11.5 156 27.4 148
18:30 - 19:00 26.3 26.6 25.9 65 0.0 10.8 154 23.4 70
19:00 - 19:30 25.3 25.8 24.8 68 0.0 11.2 150 24.8 15
19:30 - 20:00 24.4 24.7 24.2 70 0.0 11.2 152 26.3 0
20:00 - 20:30 23.8 24.1 23.6 71 0.0 12.2 151 24.1 0
20:30 - 21:00 23.4 23.6 23.3 73 0.0 12.2 150 24.8 0
21:00 - 21:30 23.5 23.6 23.4 70 0.0 11.5 149 24.8 0
21:30 - 22:00 23.3 23.6 23.1 71 0.0 11.5 146 23.4 0
22:00 - 22:30 23.0 23.1 22.7 71 0.0 9.7 146 22.7 0
22:30 - 23:00 22.6 22.7 22.4 73 0.0 6.8 132 25.9 0
23:00 - 23:30 (s/d) (s/d) (s/d) (s/d) (s/d) (s/d) (s/d) (s/d) (s/d)

Les dades en taronja només han passat un control de qualitat automàtic. Resta pendent la seva validació definitiva.